ADDS METAR Data INFO
IDs: Format: Raw Decoded Include TAF

Data at: 0844 UTC 27 Jun 2017

KBGD 270751Z AUTO 21005KT 10SM CLR 22/16 A3010 RMK AO2 SLP147 T02170161
KBGD 270651Z AUTO 19007KT 10SM CLR 23/16 A3010 RMK AO2 SLP147 T02280156
KBGD 270551Z AUTO 19009KT 10SM CLR 24/15 A3011 RMK AO2 SLP151 T02390150 10322 20239 403280172
KBGD 270451Z AUTO 19010KT 10SM CLR 24/14 A3010 RMK AO2 SLP149 T02440144 $
KBGD 270351Z AUTO 18010KT 10SM CLR 26/14 A3009 RMK AO2 SLP148 T02610144 $
KBGD 270251Z AUTO 17010KT 10SM CLR 27/14 A3008 RMK AO2 SLP142 T02720144 53004
KBGD 270151Z AUTO 18009KT 10SM CLR 28/14 A3007 RMK AO2 SLP139 T02830144
KBGD 270051Z AUTO 17009G19KT 10SM SCT080 30/14 A3006 RMK AO2 SLP138 T03000144
KBGD 262351Z AUTO 22006KT 10SM BKN080 32/12 A3006 RMK AO2 SLP139 T03170122 10328 20272 56017
KBGD 262251Z AUTO 00000KT 10SM BKN075 31/12 A3007 RMK AO2 SLP142 T03110117
KBGD 262151Z AUTO 20005KT 10SM SCT075 31/12 A3009 RMK AO2 SLP149 T03110122
KBGD 262051Z AUTO 25007KT 210V270 10SM CLR 32/12 A3012 RMK AO2 SLP156 T03220117 58026
KBGD 261951Z AUTO 21005KT 10SM CLR 31/12 A3014 RMK AO2 SLP166 T03060122
KBGD 261851Z AUTO 26007KT 10SM CLR 29/12 A3018 RMK AO2 SLP179 T02940122
KBGD 261751Z AUTO 25008G15KT 10SM CLR 28/13 A3020 RMK AO2 SLP188 T02780133 10278 20172 58017
KBGD 261651Z AUTO 25009G14KT 10SM CLR 26/13 A3022 RMK AO2 SLP197 T02610133
KBGD 261551Z AUTO 26007KT 10SM CLR 25/13 A3024 RMK AO2 SLP204 T02500133
KBGD 261451Z AUTO 25005KT 10SM CLR 22/13 A3026 RMK AO2 SLP210 T02220133 50006
KBGD 261351Z AUTO 27005KT 10SM CLR 20/14 A3026 RMK AO2 SLP212 T02000139
KBGD 261251Z AUTO 28007KT 10SM CLR 18/15 A3025 RMK AO2 SLP211 T01830150
KBGD 261151Z AUTO 26005KT 10SM CLR 17/14 A3024 RMK AO2 SLP204 70005 T01720144 10194 20172 55002
KBGD 261051Z AUTO 27007KT 10SM CLR 17/14 A3024 RMK AO2 SLP203 T01720144
KBGD 260951Z AUTO 27004KT 10SM CLR 18/15 A3025 RMK AO2 SLP206 T01780150
KBGD 260851Z AUTO 28005KT 10SM CLR 18/15 A3025 RMK AO2 SLP205 T01830150 51010
KBGD 260751Z AUTO 28008KT 10SM CLR 19/16 A3024 RMK AO2 SLP204 T01890156
KBGD 260651Z AUTO 29003KT 10SM CLR 19/14 A3022 RMK AO2 SLP200 T01890139
KBGD 260551Z AUTO VRB03G24KT 10SM CLR 19/13 A3021 RMK AO2 LTG DSNT S RAB0452E11 SLP195 P0000 60003 T01940133 10267 20194 402780194 50025
KBGD 260459Z AUTO 16012G16KT 10SM -RA FEW048 SCT070 OVC110 20/14 A3016 RMK AO2 LTG DSNT SE AND SW RAB52 PRESFR P0000 T02000139
KBGD 260451Z AUTO 15010KT 10SM VCTS SCT048 SCT070 OVC100 21/14 A3022 RMK AO2 PK WND 03030/0402 LTG DSNT S AND SW SLP199 T02060139
KBGD 260444Z AUTO 05005KT 10SM VCTS FEW050 SCT075 BKN100 21/13 A3022 RMK AO2 PK WND 03030/0402 LTG DSNT S AND SW T02060133
KBGD 260351Z AUTO 18014G23KT 10SM SCT100 SCT110 20/14 A3013 RMK AO2 PK WND 17039/0309 WSHFT 0240 LTG DSNT SE-SW RAE04 TSE04B07E33 SLP172 P0000 T02000139
KBGD 260339Z AUTO 17020G27KT 10SM FEW110 20/14 A3015 RMK AO2 PK WND 17039/0309 WSHFT 0240 LTG DSNT SE-SW RAE04 TSE04B07E33 P0000 T02000139
KBGD 260300Z AUTO 17022G30KT 10SM -TSRA FEW080 BKN100 21/17 A3012 RMK AO2 PK WND 17030/0256 WSHFT 0240 LTG DSNT SE-W P0000 T02110172
KBGD 260251Z AUTO 15018G21KT 10SM -TSRA FEW050 SCT075 OVC100 22/18 A3013 RMK AO2 LTG DSNT ALQDS RAB08 TSB34 PRESFR SLP170 P0003 60003 T02170178 58015
KBGD 260240Z AUTO 13010KT 7SM -TSRA FEW055 BKN080 OVC100 22/18 A3020 RMK AO2 LTG DSNT ALQDS RAB08 TSB34 PRESFR P0003 T02220178
KBGD 260201Z AUTO 13013G20KT 10SM VCTS BKN110 24/17 A3019 RMK AO2 LTG DSNT ALQDS T02390167
KBGD 260151Z AUTO 12014G23KT 10SM FEW060 FEW100 BKN110 24/17 A3018 RMK AO2 LTG DSNT SW-N SLP183 T02390167
KBGD 260051Z AUTO 13014G21KT 10SM CLR 25/17 A3017 RMK AO2 SLP181 T02500167
KBGD 252351Z AUTO 12010KT 10SM SCT048 SCT055 BKN070 27/16 A3018 RMK AO2 SLP181 T02670161 10278 20233 55017
KBGD 252251Z AUTO 15014G26KT 10SM BKN045 BKN055 27/16 A3018 RMK AO2 PK WND 14026/2248 SLP181 T02670161
KBGD 252151Z AUTO 14013G21KT 10SM SCT041 BKN050 26/16 A3020 RMK AO2 SLP190 T02610161
KBGD 252051Z AUTO 15012G17KT 10SM FEW045 27/17 A3023 RMK AO2 SLP198 T02670167 58018


Page loaded:  08:44 UTC  |   01:44 AM Pacific  |   02:44 AM Mountain  |   03:44 AM Central  |   04:44 AM Eastern

 

ADVISORIES

FORECASTS

FORECASTS

OBSERVATIONS

USER TOOLS

ABOUT US